Time;durP1;ratioP1;P1;durP2;ratioP2;P2;SDS_P1;SDS_P2;PMS_P1;PMS_P2;Temp;Humidity;BMP_temperature;BMP_pressure;BME280_temperature;BME280_humidity;BME280_pressure;Samples;Min_cycle;Max_cycle;Signal;HPM_P1;HPM_P2
2022/04/11 00:00:03;;;;;;;4.28;1.50;;;;;;;;;;5058612;28;20037;-92
2022/04/11 00:02:29;;;;;;;5.28;1.98;;;;;;;;;;5042138;28;20051;-93
2022/04/11 00:04:55;;;;;;;5.32;1.70;;;;;;;;;;5058662;28;20040;-93
2022/04/11 00:07:21;;;;;;;6.30;2.10;;;;;;;;;;5041840;28;20068;-93
2022/04/11 00:09:48;;;;;;;4.22;1.90;;;;;;;;;;5041786;28;20044;-92
2022/04/11 00:12:14;;;;;;;7.03;1.50;;;;;;;;;;5058426;28;20135;-92
2022/04/11 00:14:40;;;;;;;4.97;1.67;;;;;;;;;;5041711;28;20588;-93
2022/04/11 00:17:06;;;;;;;4.95;1.50;;;;;;;;;;5041425;28;20480;-93
2022/04/11 00:19:32;;;;;;;4.55;1.25;;;;;;;;;;5058725;28;20041;-93
2022/04/11 00:21:58;;;;;;;4.97;1.60;;;;;;;;;;5041486;28;20080;-93
2022/04/11 00:24:23;;;;;;;3.95;1.77;;;;;;;;;;5041895;28;20047;-93
2022/04/11 00:26:49;;;;;;;5.65;1.92;;;;;;;;;;5057763;28;20141;-91
2022/04/11 00:29:15;;;;;;;4.88;1.85;;;;;;;;;;5058044;28;20484;-93
2022/04/11 00:31:41;;;;;;;4.63;2.00;;;;;;;;;;5041388;28;20079;-93
2022/04/11 00:34:07;;;;;;;6.28;1.92;;;;;;;;;;5041413;28;20037;-93
2022/04/11 00:36:33;;;;;;;5.93;1.88;;;;;;;;;;5057814;28;20403;-93
2022/04/11 00:38:59;;;;;;;4.93;2.10;;;;;;;;;;5041462;28;20048;-93
2022/04/11 00:41:25;;;;;;;5.75;2.10;;;;;;;;;;5057818;28;20044;-93
2022/04/11 00:43:51;;;;;;;6.38;2.10;;;;;;;;;;5057961;28;20053;-93
2022/04/11 00:46:17;;;;;;;7.95;2.10;;;;;;;;;;5040823;28;20541;-94
2022/04/11 00:48:43;;;;;;;5.47;2.10;;;;;;;;;;5040875;28;20040;-92
2022/04/11 00:51:14;;;;;;;5.43;2.10;;;;;;;;;;5041387;28;20093;-92
2022/04/11 00:53:43;;;;;;;6.78;2.47;;;;;;;;;;5040774;28;20044;-93
2022/04/11 00:56:11;;;;;;;6.40;2.60;;;;;;;;;;5057648;28;20044;-93
2022/04/11 00:58:37;;;;;;;5.35;2.05;;;;;;;;;;5041145;28;20063;-93
2022/04/11 01:01:04;;;;;;;6.75;1.90;;;;;;;;;;5057544;28;20395;-94
2022/04/11 01:03:31;;;;;;;4.75;1.88;;;;;;;;;;5040514;28;20046;-93
2022/04/11 01:05:57;;;;;;;5.18;1.95;;;;;;;;;;5040778;28;20448;-94
2022/04/11 01:08:23;;;;;;;5.25;2.28;;;;;;;;;;5057135;28;20033;-93
2022/04/11 01:10:49;;;;;;;5.15;2.28;;;;;;;;;;5057192;28;20121;-92
2022/04/11 01:13:16;;;;;;;4.93;2.17;;;;;;;;;;5040587;28;20094;-92
2022/04/11 01:15:52;;;;;;;4.32;2.05;;;;;;;;;;5057234;28;20044;-94
2022/04/11 01:18:18;;;;;;;4.40;1.85;;;;;;;;;;5040395;28;20041;-94
2022/04/11 01:20:44;;;;;;;4.28;1.60;;;;;;;;;;5057543;28;20511;-93
2022/04/11 01:23:11;;;;;;;4.75;2.00;;;;;;;;;;5056898;28;20083;-93
2022/04/11 01:25:38;;;;;;;5.97;2.00;;;;;;;;;;5040521;28;20048;-93
2022/04/11 01:28:04;;;;;;;4.50;1.90;;;;;;;;;;5040487;28;20124;-93
2022/04/11 01:30:30;;;;;;;3.80;1.80;;;;;;;;;;5057232;28;20066;-92
2022/04/11 01:32:56;;;;;;;5.78;2.20;;;;;;;;;;5057350;28;20037;-95
2022/04/11 01:35:24;;;;;;;7.80;2.15;;;;;;;;;;5040553;28;20051;-94
2022/04/11 01:37:50;;;;;;;3.63;1.67;;;;;;;;;;5040269;28;20054;-93
2022/04/11 01:40:16;;;;;;;4.57;2.10;;;;;;;;;;5057217;28;20125;-93
2022/04/11 01:42:45;;;;;;;3.92;2.00;;;;;;;;;;5040018;28;20399;-93
2022/04/11 01:45:12;;;;;;;4.88;2.20;;;;;;;;;;5040052;28;20491;-93
2022/04/11 01:47:41;;;;;;;4.93;2.33;;;;;;;;;;5056786;28;20040;-92
2022/04/11 01:50:08;;;;;;;4.60;2.30;;;;;;;;;;5056446;28;20119;-93
2022/04/11 01:52:35;;;;;;;5.18;2.13;;;;;;;;;;5056389;28;20124;-92
2022/04/11 01:55:02;;;;;;;5.25;2.28;;;;;;;;;;5039890;28;20049;-94
2022/04/11 01:57:27;;;;;;;6.38;2.28;;;;;;;;;;5040319;28;20044;-93
2022/04/11 01:59:53;;;;;;;4.88;2.25;;;;;;;;;;5039482;28;20041;-92
2022/04/11 02:02:19;;;;;;;5.07;2.03;;;;;;;;;;5055909;28;20558;-93
2022/04/11 02:04:45;;;;;;;7.03;2.58;;;;;;;;;;5039542;28;20041;-92
2022/04/11 02:07:11;;;;;;;4.28;2.13;;;;;;;;;;5039381;28;20446;-93
2022/04/11 02:09:37;;;;;;;4.50;2.40;;;;;;;;;;5056596;28;20044;-93
2022/04/11 02:12:04;;;;;;;4.60;2.30;;;;;;;;;;5039793;28;20059;-94
2022/04/11 02:14:30;;;;;;;5.35;2.50;;;;;;;;;;5056284;28;20036;-94
2022/04/11 02:16:56;;;;;;;4.50;2.25;;;;;;;;;;5039708;28;20041;-92
2022/04/11 02:19:23;;;;;;;5.10;2.38;;;;;;;;;;5055848;28;20503;-94
2022/04/11 02:21:49;;;;;;;5.18;2.40;;;;;;;;;;5039774;28;20044;-93
2022/04/11 02:24:15;;;;;;;5.30;2.85;;;;;;;;;;5039234;28;20040;-93
2022/04/11 02:26:41;;;;;;;5.55;2.70;;;;;;;;;;5056040;28;20060;-94
2022/04/11 02:29:07;;;;;;;5.45;2.35;;;;;;;;;;5039206;28;20472;-94
2022/04/11 02:31:33;;;;;;;5.00;2.45;;;;;;;;;;5039996;28;20105;-95
2022/04/11 02:33:59;;;;;;;6.07;2.58;;;;;;;;;;5039360;28;20048;-93
2022/04/11 02:36:25;;;;;;;6.00;2.58;;;;;;;;;;5039700;28;20051;-93
2022/04/11 02:38:51;;;;;;;6.70;2.65;;;;;;;;;;5039121;28;20044;-92
2022/04/11 02:41:18;;;;;;;6.07;2.60;;;;;;;;;;5056133;28;20131;-93
2022/04/11 02:43:44;;;;;;;4.63;2.28;;;;;;;;;;5038848;28;20053;-94
2022/04/11 02:46:10;;;;;;;5.63;2.22;;;;;;;;;;5055655;28;20049;-92
2022/04/11 02:48:37;;;;;;;6.75;2.60;;;;;;;;;;5039109;28;20036;-94
2022/04/11 02:51:03;;;;;;;6.80;2.83;;;;;;;;;;5055997;28;20045;-93
2022/04/11 02:53:29;;;;;;;6.15;2.45;;;;;;;;;;5038848;28;20076;-93
2022/04/11 02:55:55;;;;;;;5.72;2.33;;;;;;;;;;5039401;28;20438;-95
2022/04/11 02:58:21;;;;;;;5.30;2.40;;;;;;;;;;5055513;28;20127;-93
2022/04/11 03:00:47;;;;;;;6.97;2.33;;;;;;;;;;5039121;28;20071;-94
2022/04/11 03:03:13;;;;;;;6.22;2.60;;;;;;;;;;5038761;28;20115;-94
2022/04/11 03:05:39;;;;;;;6.88;2.25;;;;;;;;;;5055697;28;20040;-95
2022/04/11 03:08:05;;;;;;;5.07;2.42;;;;;;;;;;5039078;28;20037;-93
2022/04/11 03:10:31;;;;;;;5.82;2.50;;;;;;;;;;5055468;28;20041;-93
2022/04/11 03:12:57;;;;;;;5.43;2.38;;;;;;;;;;5040062;28;20041;-94
2022/04/11 03:15:23;;;;;;;5.57;2.85;;;;;;;;;;5059604;28;20056;-95
2022/04/11 03:17:49;;;;;;;5.40;2.60;;;;;;;;;;5059620;28;20048;-93
2022/04/11 03:20:15;;;;;;;5.03;2.08;;;;;;;;;;5042506;28;20052;-93
2022/04/11 03:22:41;;;;;;;6.32;2.40;;;;;;;;;;5042489;28;20139;-93
2022/04/11 03:25:07;;;;;;;5.60;1.92;;;;;;;;;;5042715;28;20390;-93
2022/04/11 03:27:33;;;;;;;5.88;2.15;;;;;;;;;;5042807;28;20036;-93
2022/04/11 03:29:59;;;;;;;4.55;2.05;;;;;;;;;;5042812;28;20044;-92
2022/04/11 03:32:25;;;;;;;5.65;2.50;;;;;;;;;;5042733;28;20040;-92
2022/04/11 03:34:51;;;;;;;6.50;2.53;;;;;;;;;;5042898;28;20176;-94
2022/04/11 03:37:17;;;;;;;4.45;1.90;;;;;;;;;;5059525;28;20055;-96
2022/04/11 03:39:43;;;;;;;5.95;2.00;;;;;;;;;;5042671;28;20086;-94
2022/04/11 03:42:09;;;;;;;5.35;2.25;;;;;;;;;;5059488;28;20048;-94
2022/04/11 03:44:35;;;;;;;6.18;2.38;;;;;;;;;;5058854;28;20045;-93
2022/04/11 03:47:02;;;;;;;5.18;2.28;;;;;;;;;;5042625;28;20047;-93
2022/04/11 03:49:29;;;;;;;6.03;2.25;;;;;;;;;;5058919;28;20039;-93
2022/04/11 03:51:55;;;;;;;4.90;2.40;;;;;;;;;;5042056;28;20079;-95
2022/04/11 03:54:21;;;;;;;6.10;2.28;;;;;;;;;;5042363;28;20041;-95
2022/04/11 03:56:47;;;;;;;7.22;2.40;;;;;;;;;;5042295;28;20040;-93
2022/04/11 03:59:13;;;;;;;6.03;2.60;;;;;;;;;;5042161;28;20047;-93
2022/04/11 04:01:39;;;;;;;6.72;2.53;;;;;;;;;;5042085;28;20055;-93
2022/04/11 04:04:05;;;;;;;6.03;2.30;;;;;;;;;;5041771;28;20047;-93
2022/04/11 04:06:31;;;;;;;5.38;2.20;;;;;;;;;;5041791;28;20127;-93
2022/04/11 04:08:57;;;;;;;5.65;2.20;;;;;;;;;;5041869;28;20289;-94
2022/04/11 04:11:23;;;;;;;6.75;2.85;;;;;;;;;;5042097;28;20041;-94
2022/04/11 04:13:49;;;;;;;6.43;2.58;;;;;;;;;;5041867;28;20048;-94
2022/04/11 04:16:15;;;;;;;6.80;2.50;;;;;;;;;;5042207;28;20075;-93
2022/04/11 04:18:41;;;;;;;6.53;2.25;;;;;;;;;;5041378;28;20040;-94
2022/04/11 04:21:07;;;;;;;5.13;2.10;;;;;;;;;;5041831;28;20076;-92
2022/04/11 04:23:33;;;;;;;7.57;2.40;;;;;;;;;;5041841;28;20041;-92
2022/04/11 04:25:59;;;;;;;5.90;2.50;;;;;;;;;;5042603;28;20440;-92
2022/04/11 04:28:25;;;;;;;5.47;2.47;;;;;;;;;;5042380;28;20036;-92
2022/04/11 04:30:51;;;;;;;5.60;2.20;;;;;;;;;;5041442;28;20033;-93
2022/04/11 04:33:17;;;;;;;4.75;2.17;;;;;;;;;;5057992;28;20062;-92
2022/04/11 04:35:43;;;;;;;6.45;2.53;;;;;;;;;;5057949;28;20059;-93
2022/04/11 04:38:09;;;;;;;5.55;2.15;;;;;;;;;;5058035;28;20118;-93
2022/04/11 04:40:35;;;;;;;6.50;2.85;;;;;;;;;;5041435;28;20407;-94
2022/04/11 04:43:01;;;;;;;8.95;2.75;;;;;;;;;;5057755;28;20060;-93
2022/04/11 04:45:27;;;;;;;7.13;2.30;;;;;;;;;;5040601;28;20048;-92
2022/04/11 04:47:53;;;;;;;7.88;3.03;;;;;;;;;;5057629;28;20083;-93
2022/04/11 04:50:19;;;;;;;8.60;2.85;;;;;;;;;;5040907;28;20036;-93
2022/04/11 04:52:45;;;;;;;6.47;2.92;;;;;;;;;;5057762;28;20040;-93
2022/04/11 04:55:12;;;;;;;7.78;2.90;;;;;;;;;;5041046;28;20041;-92
2022/04/11 04:57:38;;;;;;;9.95;2.80;;;;;;;;;;5057733;28;20098;-94
2022/04/11 05:00:04;;;;;;;7.82;3.10;;;;;;;;;;5041109;28;20124;-93
2022/04/11 05:02:37;;;;;;;7.63;3.20;;;;;;;;;;5041089;28;20041;-92
2022/04/11 05:05:04;;;;;;;7.75;3.13;;;;;;;;;;5057310;28;20131;-94
2022/04/11 05:07:30;;;;;;;6.80;2.78;;;;;;;;;;5057458;28;20075;-94
2022/04/11 05:09:56;;;;;;;7.53;3.08;;;;;;;;;;5040489;28;20072;-93
2022/04/11 05:12:22;;;;;;;6.07;2.67;;;;;;;;;;5041101;28;20044;-94
2022/04/11 05:14:51;;;;;;;6.35;2.58;;;;;;;;;;5040586;28;20036;-94
2022/04/11 05:17:17;;;;;;;5.72;2.53;;;;;;;;;;5057460;28;20048;-94
2022/04/11 05:19:43;;;;;;;6.53;2.45;;;;;;;;;;5040404;28;20417;-94
2022/04/11 05:22:09;;;;;;;6.53;2.72;;;;;;;;;;5040612;28;20037;-92
2022/04/11 05:24:35;;;;;;;6.88;2.38;;;;;;;;;;5040507;28;20127;-92
2022/04/11 05:27:01;;;;;;;6.25;2.58;;;;;;;;;;5040363;28;20123;-92
2022/04/11 05:29:27;;;;;;;9.45;3.22;;;;;;;;;;5040273;28;20415;-95
2022/04/11 05:31:53;;;;;;;8.45;3.03;;;;;;;;;;5056823;28;20041;-93
2022/04/11 05:34:19;;;;;;;5.82;2.60;;;;;;;;;;5039968;28;20040;-94
2022/04/11 05:36:45;;;;;;;5.25;2.50;;;;;;;;;;5040260;28;20044;-93
2022/04/11 05:39:11;;;;;;;6.72;2.80;;;;;;;;;;5040424;28;20476;-94
2022/04/11 05:41:37;;;;;;;4.78;2.42;;;;;;;;;;5040759;28;20546;-95
2022/04/11 05:44:03;;;;;;;5.70;2.63;;;;;;;;;;5039686;28;20098;-95
2022/04/11 05:46:29;;;;;;;6.28;2.55;;;;;;;;;;5056580;28;20083;-93
2022/04/11 05:48:55;;;;;;;8.45;2.63;;;;;;;;;;5040835;28;20037;-95
2022/04/11 05:51:21;;;;;;;5.70;2.80;;;;;;;;;;5056732;28;20055;-93
2022/04/11 05:53:47;;;;;;;8.15;3.53;;;;;;;;;;5040287;28;20036;-94
2022/04/11 05:56:13;;;;;;;6.53;2.95;;;;;;;;;;5040158;28;20041;-94
2022/04/11 05:58:39;;;;;;;5.78;2.58;;;;;;;;;;5056418;28;20051;-93
2022/04/11 06:01:05;;;;;;;8.20;3.05;;;;;;;;;;5039723;28;20052;-93
2022/04/11 06:03:31;;;;;;;8.23;3.13;;;;;;;;;;5040397;28;20072;-94
2022/04/11 06:05:57;;;;;;;11.68;3.10;;;;;;;;;;5056073;28;20472;-93
2022/04/11 06:08:23;;;;;;;7.60;3.03;;;;;;;;;;5040483;28;20068;-93
2022/04/11 06:10:49;;;;;;;11.00;3.10;;;;;;;;;;5039742;28;20051;-94
2022/04/11 06:13:15;;;;;;;9.48;3.30;;;;;;;;;;5056243;28;20090;-93
2022/04/11 06:15:41;;;;;;;6.65;3.08;;;;;;;;;;5056015;28;20048;-95
2022/04/11 06:18:07;;;;;;;8.43;2.83;;;;;;;;;;5040023;28;20044;-94
2022/04/11 06:20:33;;;;;;;9.15;4.22;;;;;;;;;;5039549;28;20354;-95
2022/04/11 06:22:59;;;;;;;7.63;3.40;;;;;;;;;;5056619;28;20044;-94
2022/04/11 06:25:25;;;;;;;9.13;3.47;;;;;;;;;;5031405;28;20045;-94
2022/04/11 06:27:51;;;;;;;10.07;3.65;;;;;;;;;;5026563;28;20068;-94
2022/04/11 06:30:17;;;;;;;8.13;4.05;;;;;;;;;;5043950;28;20072;-93
2022/04/11 06:32:43;;;;;;;9.68;3.75;;;;;;;;;;5046516;28;20038;-93
2022/04/11 06:35:10;;;;;;;8.85;3.50;;;;;;;;;;5034959;28;20040;-93
2022/04/11 06:37:36;;;;;;;10.38;3.88;;;;;;;;;;5019337;28;20463;-93
2022/04/11 06:40:03;;;;;;;7.63;3.10;;;;;;;;;;5019116;28;20132;-93
2022/04/11 06:42:29;;;;;;;7.45;3.13;;;;;;;;;;5038314;28;20408;-93
2022/04/11 06:44:57;;;;;;;7.93;3.72;;;;;;;;;;5036584;28;20081;-92
2022/04/11 06:47:24;;;;;;;8.48;3.30;;;;;;;;;;5026541;28;20041;-92
2022/04/11 06:49:50;;;;;;;9.48;3.92;;;;;;;;;;5016678;28;20439;-93
2022/04/11 06:52:16;;;;;;;8.18;3.40;;;;;;;;;;5018980;28;20041;-91
2022/04/11 06:54:44;;;;;;;9.30;3.58;;;;;;;;;;5046368;28;20087;-93
2022/04/11 06:57:11;;;;;;;8.65;3.80;;;;;;;;;;5074735;23;20097;-90
2022/04/11 06:59:37;;;;;;;7.97;3.75;;;;;;;;;;5018647;28;20053;-92
2022/04/11 07:02:03;;;;;;;7.75;3.58;;;;;;;;;;5030643;28;20041;-92
2022/04/11 07:04:29;;;;;;;12.02;4.20;;;;;;;;;;5030169;28;20128;-92
2022/04/11 07:06:55;;;;;;;10.45;4.00;;;;;;;;;;5015200;28;20120;-93
2022/04/11 07:09:21;;;;;;;8.75;4.30;;;;;;;;;;5015216;28;20523;-92
2022/04/11 07:11:47;;;;;;;9.00;3.80;;;;;;;;;;5015398;28;20170;-93
2022/04/11 07:14:13;;;;;;;8.48;4.60;;;;;;;;;;5015219;28;20045;-93
2022/04/11 07:16:39;;;;;;;7.78;3.92;;;;;;;;;;5031706;28;20046;-93
2022/04/11 07:19:06;;;;;;;7.63;4.10;;;;;;;;;;5015618;28;20045;-93
2022/04/11 07:21:33;;;;;;;12.88;5.05;;;;;;;;;;5015150;28;20038;-93
2022/04/11 07:23:59;;;;;;;8.15;4.50;;;;;;;;;;5015005;28;20081;-93
2022/04/11 07:26:25;;;;;;;7.07;3.83;;;;;;;;;;5031445;28;20045;-93
2022/04/11 07:28:51;;;;;;;8.88;3.75;;;;;;;;;;5015700;28;20120;-92
2022/04/11 07:31:17;;;;;;;7.25;3.80;;;;;;;;;;5030757;28;20307;-93
2022/04/11 07:33:43;;;;;;;6.70;3.35;;;;;;;;;;5032572;28;20042;-92
2022/04/11 07:36:09;;;;;;;6.78;3.75;;;;;;;;;;5031107;28;20041;-91
2022/04/11 07:38:35;;;;;;;8.75;3.90;;;;;;;;;;5031749;28;20493;-91
2022/04/11 07:41:02;;;;;;;7.53;4.03;;;;;;;;;;5014632;28;20084;-91
2022/04/11 07:43:27;;;;;;;7.72;3.80;;;;;;;;;;5018340;28;20065;-91
2022/04/11 07:45:53;;;;;;;11.07;4.03;;;;;;;;;;5014636;28;20483;-91
2022/04/11 07:48:19;;;;;;;8.13;3.65;;;;;;;;;;5031688;28;20091;-91
2022/04/11 07:50:45;;;;;;;7.72;3.67;;;;;;;;;;5030997;28;20045;-91
2022/04/11 07:53:11;;;;;;;8.95;4.15;;;;;;;;;;5031549;28;20045;-92
2022/04/11 07:55:37;;;;;;;8.60;3.65;;;;;;;;;;5016572;28;20064;-91
2022/04/11 07:58:04;;;;;;;8.07;3.17;;;;;;;;;;5017705;28;20136;-92
2022/04/11 08:00:30;;;;;;;5.97;3.17;;;;;;;;;;5038612;28;20161;-91
2022/04/11 08:02:57;;;;;;;7.40;3.55;;;;;;;;;;5037925;28;20476;-91
2022/04/11 08:05:24;;;;;;;6.45;3.10;;;;;;;;;;5021896;28;20037;-91
2022/04/11 08:07:51;;;;;;;10.57;4.07;;;;;;;;;;5021760;28;20396;-93
2022/04/11 08:10:17;;;;;;;7.35;3.22;;;;;;;;;;5021677;28;20127;-92
2022/04/11 08:12:52;;;;;;;8.00;3.17;;;;;;;;;;5037844;28;20037;-92
2022/04/11 08:15:18;;;;;;;7.90;3.00;;;;;;;;;;5038083;28;20044;-92
2022/04/11 08:17:44;;;;;;;6.30;2.78;;;;;;;;;;5038636;28;20072;-91
2022/04/11 08:20:10;;;;;;;7.63;2.85;;;;;;;;;;5038017;28;20048;-91
2022/04/11 08:22:36;;;;;;;8.63;3.58;;;;;;;;;;5022864;28;20111;-91
2022/04/11 08:25:02;;;;;;;6.50;2.95;;;;;;;;;;5037937;28;20122;-91
2022/04/11 08:27:28;;;;;;;8.57;2.90;;;;;;;;;;5037673;28;20131;-89
2022/04/11 08:29:57;;;;;;;7.22;3.03;;;;;;;;;;5037794;28;20471;-92
2022/04/11 08:32:23;;;;;;;6.72;2.90;;;;;;;;;;5038660;28;20041;-91
2022/04/11 08:34:49;;;;;;;6.47;2.50;;;;;;;;;;5021786;28;20037;-94
2022/04/11 08:37:15;;;;;;;6.55;3.28;;;;;;;;;;5037702;28;20037;-93
2022/04/11 08:39:41;;;;;;;6.85;3.00;;;;;;;;;;5021881;28;20463;-93
2022/04/11 08:42:07;;;;;;;9.32;2.80;;;;;;;;;;5021783;28;20037;-93
2022/04/11 08:44:33;;;;;;;8.57;3.35;;;;;;;;;;5021149;28;20037;-92
2022/04/11 08:47:01;;;;;;;10.50;3.35;;;;;;;;;;5020874;28;20477;-93
2022/04/11 08:49:28;;;;;;;7.13;3.03;;;;;;;;;;5021034;28;20128;-93
2022/04/11 08:51:54;;;;;;;8.50;3.13;;;;;;;;;;5021190;28;20072;-92
2022/04/11 08:54:20;;;;;;;8.73;2.88;;;;;;;;;;5021551;28;20051;-92
2022/04/11 08:56:47;;;;;;;6.80;2.65;;;;;;;;;;5019923;28;20061;-93
2022/04/11 08:59:14;;;;;;;7.10;2.55;;;;;;;;;;5037310;28;20045;-92
2022/04/11 09:01:40;;;;;;;8.63;2.63;;;;;;;;;;5035759;28;20408;-90
2022/04/11 09:04:08;;;;;;;6.15;2.45;;;;;;;;;;5020409;28;20128;-91
2022/04/11 09:06:35;;;;;;;6.65;2.55;;;;;;;;;;5020007;28;20052;-88
2022/04/11 09:09:02;;;;;;;9.73;2.60;;;;;;;;;;5020504;28;20036;-90
2022/04/11 09:11:29;;;;;;;6.85;2.08;;;;;;;;;;5035197;28;20112;-91
2022/04/11 09:13:55;;;;;;;7.53;2.45;;;;;;;;;;5036677;28;20150;-92
2022/04/11 09:16:21;;;;;;;8.25;3.03;;;;;;;;;;5018972;28;20148;-90
2022/04/11 09:18:55;;;;;;;7.18;2.60;;;;;;;;;;5019959;28;20227;-91
2022/04/11 09:21:22;;;;;;;8.23;2.38;;;;;;;;;;5019098;28;20116;-91
2022/04/11 09:23:48;;;;;;;8.65;2.45;;;;;;;;;;5036803;28;20049;-90
2022/04/11 09:26:22;;;;;;;7.82;2.45;;;;;;;;;;5018531;28;20124;-91
2022/04/11 09:29:04;;;;;;;6.13;2.15;;;;;;;;;;5033830;28;20389;-90
2022/04/11 09:31:34;;;;;;;8.68;2.30;;;;;;;;;;5035053;28;20388;-90
2022/04/11 09:34:13;;;;;;;7.07;2.42;;;;;;;;;;5036128;28;20416;-90
2022/04/11 09:36:50;;;;;;;6.70;2.40;;;;;;;;;;5035437;28;20084;-90
2022/04/11 09:39:16;;;;;;;8.80;2.53;;;;;;;;;;5036404;28;20045;-90
2022/04/11 09:41:43;;;;;;;7.20;2.75;;;;;;;;;;5017319;28;20438;-90
2022/04/11 09:44:20;;;;;;;7.45;2.50;;;;;;;;;;5035966;28;20049;-90
2022/04/11 09:46:46;;;;;;;6.50;2.22;;;;;;;;;;5034514;28;20045;-90
2022/04/11 09:49:12;;;;;;;6.30;2.40;;;;;;;;;;5035931;28;20044;-91
2022/04/11 09:51:58;;;;;;;6.35;2.80;;;;;;;;;;5034766;28;20041;-91
2022/04/11 09:54:24;;;;;;;;;;;;;;;;;;5036216;28;20118;-90
2022/04/11 09:56:51;;;;;;;5.95;1.92;;;;;;;;;;5032444;28;19976;-90
2022/04/11 09:59:18;;;;;;;8.20;2.28;;;;;;;;;;5035647;28;20056;-86
2022/04/11 10:01:44;;;;;;;5.68;2.42;;;;;;;;;;5052627;28;20036;-88
2022/04/11 10:04:11;;;;;;;7.35;2.45;;;;;;;;;;5018822;28;20091;-88
2022/04/11 10:06:37;;;;;;;8.88;1.92;;;;;;;;;;5034724;28;20484;-87
2022/04/11 10:09:04;;;;;;;8.27;2.20;;;;;;;;;;5036306;28;20051;-90
2022/04/11 10:11:30;;;;;;;4.85;1.73;;;;;;;;;;5034473;28;20037;-91
2022/04/11 10:13:56;;;;;;;8.70;2.00;;;;;;;;;;5035456;28;20095;-89
2022/04/11 10:16:23;;;;;;;7.15;2.80;;;;;;;;;;5052813;28;20049;-91
2022/04/11 10:18:52;;;;;;;6.78;2.30;;;;;;;;;;5036152;28;20045;-94
2022/04/11 10:21:18;;;;;;;4.30;1.63;;;;;;;;;;5018261;28;20129;-88
2022/04/11 10:23:57;;;;;;;4.72;2.00;;;;;;;;;;5034733;28;20036;-90
2022/04/11 10:26:26;;;;;;;4.90;1.92;;;;;;;;;;5035093;28;20041;-90
2022/04/11 10:28:52;;;;;;;9.40;2.45;;;;;;;;;;5019238;28;20044;-90
2022/04/11 10:31:18;;;;;;;6.80;1.88;;;;;;;;;;5035227;28;20037;-88
2022/04/11 10:33:44;;;;;;;6.60;2.10;;;;;;;;;;5034813;28;20052;-88
2022/04/11 10:36:29;;;;;;;7.57;2.15;;;;;;;;;;5035166;28;20040;-90
2022/04/11 10:39:30;;;;;;;7.47;2.35;;;;;;;;;;5034870;28;20093;-89
2022/04/11 10:41:56;;;;;;;8.13;2.17;;;;;;;;;;4956141;28;20047;-89
2022/04/11 10:44:32;;;;;;;5.20;1.80;;;;;;;;;;5019245;28;20060;-89
2022/04/11 10:47:11;;;;;;;5.95;2.08;;;;;;;;;;5035040;28;20056;-89
2022/04/11 10:49:55;;;;;;;6.57;2.15;;;;;;;;;;5034792;28;20041;-89
2022/04/11 10:52:33;;;;;;;5.88;2.47;;;;;;;;;;5034767;28;20089;-91
2022/04/11 10:55:09;;;;;;;6.25;2.45;;;;;;;;;;5033894;28;20033;-89
2022/04/11 10:57:38;;;;;;;6.72;2.38;;;;;;;;;;5034435;28;20132;-90
2022/04/11 11:00:12;;;;;;;10.70;2.80;;;;;;;;;;5033073;28;20045;-91
2022/04/11 11:05:23;;;;;;;6.00;2.30;;;;;;;;;;5033686;28;20048;-90
2022/04/11 11:07:49;;;;;;;7.40;2.15;;;;;;;;;;5034975;28;20077;-91
2022/04/11 11:10:27;;;;;;;6.43;2.13;;;;;;;;;;5035190;28;20040;-90
2022/04/11 11:12:52;;;;;;;4.68;1.67;;;;;;;;;;5036663;28;20033;-91
2022/04/11 11:15:26;;;;;;;8.23;2.22;;;;;;;;;;5036060;28;20037;-90
2022/04/11 11:17:59;;;;;;;8.52;2.35;;;;;;;;;;5034769;28;20048;-94
2022/04/11 11:20:25;;;;;;;6.70;2.40;;;;;;;;;;5037706;28;20048;-94
2022/04/11 11:23:10;;;;;;;5.25;2.30;;;;;;;;;;5019551;28;20068;-92
2022/04/11 11:25:36;;;;;;;5.88;2.50;;;;;;;;;;5035250;28;20041;-92
2022/04/11 11:28:02;;;;;;;5.50;2.17;;;;;;;;;;5035413;28;20379;-93
2022/04/11 11:30:28;;;;;;;5.60;2.50;;;;;;;;;;5035285;28;20041;-92
2022/04/11 11:33:00;;;;;;;6.78;2.90;;;;;;;;;;5018640;28;20377;-93
2022/04/11 11:35:26;;;;;;;6.90;2.38;;;;;;;;;;5023002;28;20053;-93
2022/04/11 11:37:56;;;;;;;6.18;2.40;;;;;;;;;;5038840;28;20043;-92
2022/04/11 11:40:22;;;;;;;6.43;2.80;;;;;;;;;;5022341;28;20079;-92
2022/04/11 11:42:49;;;;;;;7.25;2.70;;;;;;;;;;5038785;28;20115;-94
2022/04/11 11:45:26;;;;;;;6.43;2.90;;;;;;;;;;5022754;28;20065;-93
2022/04/11 11:47:52;;;;;;;8.02;3.10;;;;;;;;;;5022466;28;20143;-95
2022/04/11 11:50:18;;;;;;;7.45;2.83;;;;;;;;;;5022765;28;20073;-92
2022/04/11 11:52:56;;;;;;;9.38;3.13;;;;;;;;;;5038804;28;20125;-94
2022/04/11 11:55:22;;;;;;;8.95;3.38;;;;;;;;;;5039416;28;20132;-92
2022/04/11 11:58:02;;;;;;;8.77;3.17;;;;;;;;;;5025402;28;20438;-93
2022/04/11 12:00:33;;;;;;;7.57;3.20;;;;;;;;;;5022754;28;20136;-93
2022/04/11 12:06:04;;;;;;;8.20;3.53;;;;;;;;;;4959852;28;20601;-93
2022/04/11 12:08:32;;;;;;;7.35;2.70;;;;;;;;;;4943695;28;20054;-94
2022/04/11 12:11:01;;;;;;;7.10;2.78;;;;;;;;;;4985317;28;20099;-94
2022/04/11 12:13:30;;;;;;;5.80;2.70;;;;;;;;;;5021881;28;20033;-93
2022/04/11 12:16:10;;;;;;;8.27;2.80;;;;;;;;;;5038774;28;20080;-93
2022/04/11 12:18:52;;;;;;;6.50;3.17;;;;;;;;;;5021981;28;20128;-93
2022/04/11 12:21:18;;;;;;;7.75;3.30;;;;;;;;;;5039178;28;20110;-92
2022/04/11 12:23:46;;;;;;;8.60;3.20;;;;;;;;;;5038287;28;20045;-94
2022/04/11 12:26:12;;;;;;;6.60;3.05;;;;;;;;;;5042916;28;20400;-93
2022/04/11 12:28:38;;;;;;;6.68;3.08;;;;;;;;;;5038486;28;20094;-94
2022/04/11 12:31:11;;;;;;;6.50;3.30;;;;;;;;;;5038301;28;20095;-91
2022/04/11 12:33:46;;;;;;;7.75;3.00;;;;;;;;;;5038329;28;20605;-93
2022/04/11 12:36:23;;;;;;;5.88;3.13;;;;;;;;;;5021696;28;20472;-93
2022/04/11 12:38:52;;;;;;;8.20;3.35;;;;;;;;;;5021723;28;20049;-94
2022/04/11 12:41:32;;;;;;;8.48;2.85;;;;;;;;;;5022022;28;20055;-94
2022/04/11 12:44:07;;;;;;;9.52;3.55;;;;;;;;;;5021743;28;20128;-93
2022/04/11 12:46:34;;;;;;;6.25;2.88;;;;;;;;;;5023296;28;20068;-93
2022/04/11 12:49:01;;;;;;;7.50;3.33;;;;;;;;;;5037885;28;20036;-95
2022/04/11 12:51:28;;;;;;;10.77;3.33;;;;;;;;;;5021627;28;20127;-93
2022/04/11 12:54:04;;;;;;;7.00;3.33;;;;;;;;;;5038226;28;20044;-93
2022/04/11 12:56:34;;;;;;;7.22;2.83;;;;;;;;;;5021483;28;20512;-93
2022/04/11 12:59:00;;;;;;;7.30;3.20;;;;;;;;;;5037572;28;20077;-93
2022/04/11 13:01:46;;;;;;;9.27;3.10;;;;;;;;;;5021378;28;20059;-93
2022/04/11 13:04:12;;;;;;;7.22;3.40;;;;;;;;;;5020159;28;20041;-95
2022/04/11 13:06:38;;;;;;;5.32;2.97;;;;;;;;;;5021075;28;20041;-93
2022/04/11 13:09:04;;;;;;;8.15;3.80;;;;;;;;;;5020237;28;20048;-96
2022/04/11 13:11:30;;;;;;;7.45;3.20;;;;;;;;;;5020979;28;20041;-94
2022/04/11 13:13:56;;;;;;;6.93;3.55;;;;;;;;;;5037907;28;20040;-92
2022/04/11 13:19:07;;;;;;;7.25;3.33;;;;;;;;;;5037210;28;20123;-94
2022/04/11 13:21:33;;;;;;;7.25;3.10;;;;;;;;;;5020804;28;20065;-93
2022/04/11 13:23:59;;;;;;;8.77;3.40;;;;;;;;;;5021255;28;20051;-94
2022/04/11 13:26:25;;;;;;;6.30;2.90;;;;;;;;;;5020734;28;20127;-93
2022/04/11 13:28:51;;;;;;;7.13;2.90;;;;;;;;;;5020641;28;20512;-95
2022/04/11 13:31:17;;;;;;;6.72;2.95;;;;;;;;;;5037293;28;20045;-94
2022/04/11 13:33:57;;;;;;;6.93;3.33;;;;;;;;;;5029580;28;20052;-94
2022/04/11 13:36:23;;;;;;;6.55;3.33;;;;;;;;;;5029185;28;20048;-94
2022/04/11 13:38:49;;;;;;;6.07;3.08;;;;;;;;;;5037335;28;20048;-93
2022/04/11 13:41:15;;;;;;;5.88;2.90;;;;;;;;;;5020583;28;20094;-94
2022/04/11 13:43:41;;;;;;;6.63;3.13;;;;;;;;;;5020510;28;20048;-93
2022/04/11 13:46:07;;;;;;;10.27;3.60;;;;;;;;;;5018954;28;20051;-96
2022/04/11 13:48:33;;;;;;;8.02;3.40;;;;;;;;;;5037326;28;20115;-95
2022/04/11 13:50:59;;;;;;;8.00;3.55;;;;;;;;;;5019002;28;20499;-94
2022/04/11 13:53:28;;;;;;;8.73;3.70;;;;;;;;;;5036435;28;20037;-92
2022/04/11 13:55:54;;;;;;;7.15;3.60;;;;;;;;;;5019546;28;20061;-92
2022/04/11 13:58:20;;;;;;;6.50;3.42;;;;;;;;;;5019881;28;20049;-95
2022/04/11 14:00:46;;;;;;;9.50;3.60;;;;;;;;;;5036824;28;20138;-93
2022/04/11 14:03:13;;;;;;;10.05;4.07;;;;;;;;;;5036803;28;20041;-93
2022/04/11 14:05:40;;;;;;;9.75;3.78;;;;;;;;;;5018835;28;20400;-94
2022/04/11 14:08:06;;;;;;;9.48;3.65;;;;;;;;;;5020578;28;20048;-93
2022/04/11 14:10:32;;;;;;;8.77;3.63;;;;;;;;;;5036280;28;20033;-95
2022/04/11 14:12:58;;;;;;;6.57;3.58;;;;;;;;;;5036754;28;20507;-95
2022/04/11 14:15:24;;;;;;;10.88;3.50;;;;;;;;;;5036350;28;20048;-89
2022/04/11 14:17:50;;;;;;;8.13;3.70;;;;;;;;;;5040083;28;20037;-94
2022/04/11 14:20:16;;;;;;;9.55;3.88;;;;;;;;;;5038152;28;20500;-94
2022/04/11 14:22:42;;;;;;;6.03;3.17;;;;;;;;;;5036466;28;20063;-95
2022/04/11 14:25:08;;;;;;;8.90;3.58;;;;;;;;;;5036130;28;20551;-94
2022/04/11 14:27:34;;;;;;;6.47;3.45;;;;;;;;;;5019839;28;20435;-95
2022/04/11 14:30:00;;;;;;;8.95;3.53;;;;;;;;;;5036057;28;20041;-96
2022/04/11 14:32:26;;;;;;;7.63;4.00;;;;;;;;;;5019954;28;20099;-93
2022/04/11 14:34:53;;;;;;;7.20;3.60;;;;;;;;;;5018283;28;20041;-94
2022/04/11 14:37:19;;;;;;;6.60;3.40;;;;;;;;;;5019493;28;20051;-95
2022/04/11 14:39:44;;;;;;;6.03;3.42;;;;;;;;;;5034985;28;20044;-94
2022/04/11 14:42:11;;;;;;;8.73;3.78;;;;;;;;;;5019481;28;20045;-93
2022/04/11 14:44:37;;;;;;;7.53;4.03;;;;;;;;;;5019705;28;20098;-94
2022/04/11 14:47:05;;;;;;;7.13;3.75;;;;;;;;;;5091556;23;20050;-94
2022/04/11 14:49:31;;;;;;;8.45;3.83;;;;;;;;;;4980784;28;20045;-95
2022/04/11 14:51:57;;;;;;;7.43;3.50;;;;;;;;;;4975991;28;20057;-95